Time;durP1;ratioP1;P1;durP2;ratioP2;P2;SDS_P1;SDS_P2;PMS_P1;PMS_P2;Temp;Humidity;BMP_temperature;BMP_pressure;BME280_temperature;BME280_humidity;BME280_pressure;Samples;Min_cycle;Max_cycle;Signal;HPM_P1;HPM_P2
2021/08/28 00:01:01;;;;;;;12.93;2.80;;;18.50;86.70;;;;;;4274414;27;20095;-65
2021/08/28 00:03:04;;;;;;;11.55;2.65;;;18.30;88.10;;;;;;4274468;27;20051;-65
2021/08/28 00:05:08;;;;;;;9.40;2.72;;;18.30;88.20;;;;;;4240334;28;20067;-65
2021/08/28 00:07:11;;;;;;;17.63;3.28;;;18.10;90.00;;;;;;4240500;28;20055;-65
2021/08/28 00:09:13;;;;;;;13.10;2.92;;;18.10;90.00;;;;;;4240443;28;20093;-65
2021/08/28 00:11:16;;;;;;;10.85;3.08;;;18.20;89.10;;;;;;4240270;28;20059;-65
2021/08/28 00:13:19;;;;;;;18.70;3.13;;;18.10;90.20;;;;;;4240519;28;20047;-65
2021/08/28 00:15:24;;;;;;;15.10;2.80;;;18.20;90.00;;;;;;4239172;28;20051;-65
2021/08/28 00:17:33;;;;;;;11.23;2.55;;;18.10;90.10;;;;;;4240385;28;20278;-65
2021/08/28 00:19:36;;;;;;;12.88;2.85;;;18.10;90.20;;;;;;4240155;28;20337;-65
2021/08/28 00:21:38;;;;;;;14.85;2.40;;;18.00;90.80;;;;;;4240377;28;20052;-65
2021/08/28 00:23:41;;;;;;;15.10;2.65;;;18.00;90.70;;;;;;4240134;28;20506;-65
2021/08/28 00:25:44;;;;;;;14.57;2.90;;;18.00;90.80;;;;;;4239862;28;20050;-65
2021/08/28 00:27:47;;;;;;;12.57;3.03;;;18.00;90.90;;;;;;4239961;28;20048;-65
2021/08/28 00:29:50;;;;;;;15.38;3.58;;;18.00;90.60;;;;;;4239088;28;20352;-64
2021/08/28 00:31:55;;;;;;;20.55;3.47;;;17.90;91.00;;;;;;4240257;28;20379;-65
2021/08/28 00:34:02;;;;;;;14.25;3.05;;;17.90;91.10;;;;;;4240154;28;20077;-65
2021/08/28 00:36:05;;;;;;;21.08;3.60;;;17.90;91.60;;;;;;4239839;28;20089;-66
2021/08/28 00:38:09;;;;;;;17.00;3.35;;;17.80;91.60;;;;;;4239809;27;20100;-64
2021/08/28 00:40:12;;;;;;;18.13;3.13;;;17.90;91.50;;;;;;4239869;28;20063;-65
2021/08/28 00:42:15;;;;;;;13.52;2.83;;;17.70;92.30;;;;;;4239882;28;20506;-64
2021/08/28 00:44:18;;;;;;;18.30;3.10;;;17.60;92.60;;;;;;4240032;28;20059;-64
2021/08/28 00:46:21;;;;;;;12.15;2.78;;;17.70;92.40;;;;;;4239940;28;20259;-64
2021/08/28 00:48:26;;;;;;;12.85;3.00;;;17.70;92.40;;;;;;4238600;28;20052;-65
2021/08/28 00:50:29;;;;;;;15.55;2.88;;;17.60;92.50;;;;;;4239926;28;20096;-68
2021/08/28 00:52:32;;;;;;;17.83;3.25;;;17.60;92.90;;;;;;4239881;28;20063;-64
2021/08/28 00:54:36;;;;;;;21.77;3.28;;;17.60;92.80;;;;;;4239928;28;20051;-65
2021/08/28 00:56:40;;;;;;;21.75;3.53;;;17.60;92.90;;;;;;4239598;28;20344;-64
2021/08/28 00:58:43;;;;;;;18.65;3.03;;;17.60;92.90;;;;;;4239580;28;20332;-64
2021/08/28 01:00:48;;;;;;;15.15;2.80;;;17.60;93.10;;;;;;4239653;28;20336;-65
2021/08/28 01:02:52;;;;;;;21.85;3.85;;;17.60;93.00;;;;;;4239569;28;20051;-64
2021/08/28 01:05:03;;;;;;;18.67;3.50;;;17.40;93.90;;;;;;4270383;27;20043;-64
2021/08/28 01:07:12;;;;;;;16.10;2.90;;;17.40;93.70;;;;;;4271722;27;20462;-65
2021/08/28 01:09:20;;;;;;;22.10;3.60;;;17.40;93.90;;;;;;4273562;27;20051;-65
2021/08/28 01:11:29;;;;;;;12.93;2.78;;;17.50;93.80;;;;;;4273213;27;20066;-64
2021/08/28 01:13:36;;;;;;;14.35;2.83;;;17.40;93.80;;;;;;4273375;27;20047;-64
2021/08/28 01:15:40;;;;;;;18.40;3.28;;;17.40;94.00;;;;;;4273222;27;20058;-64
2021/08/28 01:17:45;;;;;;;17.77;3.50;;;17.50;93.80;;;;;;4273266;27;20050;-64
2021/08/28 01:19:58;;;;;;;18.10;3.53;;;17.60;93.40;;;;;;4272838;27;20051;-64
2021/08/28 01:22:05;;;;;;;13.05;3.08;;;17.50;93.60;;;;;;4273228;27;20050;-65
2021/08/28 01:24:08;;;;;;;16.92;2.90;;;17.60;93.30;;;;;;4273163;27;20051;-64
2021/08/28 01:26:21;;;;;;;14.02;3.13;;;17.70;92.80;;;;;;4273059;27;20054;-64
2021/08/28 01:28:26;;;;;;;15.63;3.70;;;17.80;92.30;;;;;;4273055;27;20050;-64
2021/08/28 01:30:32;;;;;;;14.93;2.92;;;17.90;92.30;;;;;;4273189;27;20050;-64
2021/08/28 01:32:36;;;;;;;15.68;3.00;;;17.60;93.50;;;;;;4273161;27;20209;-64
2021/08/28 01:34:40;;;;;;;16.40;3.00;;;17.70;92.80;;;;;;4273015;27;20059;-64
2021/08/28 01:36:44;;;;;;;15.80;2.85;;;17.80;92.80;;;;;;4272092;27;20077;-64
2021/08/28 01:38:48;;;;;;;18.65;3.20;;;17.80;92.50;;;;;;4272829;27;20358;-64
2021/08/28 01:40:52;;;;;;;19.35;3.20;;;17.90;92.50;;;;;;4272717;27;20054;-64
2021/08/28 01:42:56;;;;;;;17.83;3.05;;;17.90;92.30;;;;;;4272924;27;20054;-64
2021/08/28 01:45:00;;;;;;;12.27;2.97;;;18.00;92.30;;;;;;4273140;27;20050;-64
2021/08/28 01:47:07;;;;;;;15.77;2.95;;;17.90;92.40;;;;;;4272852;27;20058;-65
2021/08/28 01:49:12;;;;;;;23.55;3.47;;;17.90;92.20;;;;;;4272845;27;20050;-64
2021/08/28 01:51:15;;;;;;;20.58;3.40;;;18.00;92.00;;;;;;4272503;27;20057;-64
2021/08/28 01:53:19;;;;;;;21.73;3.05;;;18.00;92.20;;;;;;4272503;27;20458;-64
2021/08/28 01:55:22;;;;;;;15.45;3.45;;;17.80;92.70;;;;;;4272128;27;20054;-64
2021/08/28 01:57:25;;;;;;;13.00;2.60;;;17.80;92.80;;;;;;4270500;27;20050;-64
2021/08/28 01:59:30;;;;;;;18.33;4.07;;;17.70;93.00;;;;;;4272195;27;20062;-64
2021/08/28 02:01:33;;;;;;;19.25;3.25;;;17.80;92.70;;;;;;4272597;27;20103;-64
2021/08/28 02:03:38;;;;;;;19.25;3.65;;;17.80;93.50;;;;;;4272286;27;20050;-64
2021/08/28 02:05:47;;;;;;;22.25;3.50;;;17.70;93.40;;;;;;4272551;27;20055;-64
2021/08/28 02:07:55;;;;;;;17.38;3.00;;;17.80;92.90;;;;;;4272419;27;20047;-64
2021/08/28 02:10:03;;;;;;;16.92;3.15;;;17.70;93.10;;;;;;4272374;27;20050;-64
2021/08/28 02:12:12;;;;;;;20.52;3.00;;;17.80;93.50;;;;;;4272359;27;20346;-64
2021/08/28 02:14:18;;;;;;;21.10;3.47;;;17.80;93.20;;;;;;4272607;27;20425;-64
2021/08/28 02:16:25;;;;;;;24.00;3.20;;;17.70;93.50;;;;;;4272443;27;20103;-64
2021/08/28 02:18:33;;;;;;;20.75;3.28;;;17.80;92.80;;;;;;4272761;27;20059;-64
2021/08/28 02:20:44;;;;;;;17.75;3.90;;;17.80;92.80;;;;;;4272386;27;20107;-64
2021/08/28 02:22:48;;;;;;;17.55;3.90;;;17.80;93.20;;;;;;4272395;27;20281;-65
2021/08/28 02:24:56;;;;;;;17.10;3.40;;;17.80;93.30;;;;;;4272322;27;20050;-64
2021/08/28 02:27:05;;;;;;;12.48;3.45;;;17.70;93.80;;;;;;4272435;27;20595;-64
2021/08/28 02:29:13;;;;;;;14.75;3.00;;;17.50;94.30;;;;;;4272223;27;20058;-65
2021/08/28 02:31:18;;;;;;;23.23;3.83;;;17.70;93.60;;;;;;4272195;27;20232;-65
2021/08/28 02:33:22;;;;;;;16.20;2.80;;;17.60;93.70;;;;;;4252132;27;20051;-65
2021/08/28 02:35:27;;;;;;;16.58;3.38;;;17.60;93.90;;;;;;4272261;27;20087;-64
2021/08/28 02:37:33;;;;;;;15.45;3.10;;;17.60;94.20;;;;;;4272241;27;20050;-64
2021/08/28 02:39:38;;;;;;;18.52;3.60;;;17.50;94.40;;;;;;4272172;27;20091;-64
2021/08/28 02:41:42;;;;;;;;;;;17.50;94.50;;;;;;4272907;27;20051;-64
2021/08/28 02:43:46;;;;;;;20.05;3.78;;;17.50;94.40;;;;;;4271864;27;19919;-64
2021/08/28 02:45:50;;;;;;;19.33;3.67;;;17.50;94.00;;;;;;4268116;27;20063;-64
2021/08/28 02:47:54;;;;;;;14.68;3.25;;;17.60;93.80;;;;;;4273145;27;20685;-67
2021/08/28 02:49:59;;;;;;;19.80;3.17;;;17.70;94.00;;;;;;4275597;27;20274;-64
2021/08/28 02:52:03;;;;;;;20.05;2.92;;;17.50;94.20;;;;;;4257150;27;20051;-64
2021/08/28 02:54:10;;;;;;;14.55;3.40;;;17.60;94.40;;;;;;4275579;27;20050;-64
2021/08/28 02:56:15;;;;;;;23.17;4.05;;;17.60;94.30;;;;;;4275663;27;20121;-64
2021/08/28 02:58:19;;;;;;;18.63;3.03;;;17.50;94.40;;;;;;4275502;27;20055;-64
2021/08/28 03:00:22;;;;;;;14.68;3.30;;;17.60;93.90;;;;;;4275459;27;20342;-65
2021/08/28 03:02:26;;;;;;;16.63;2.65;;;17.60;93.80;;;;;;4275436;27;20051;-64
2021/08/28 03:04:30;;;;;;;24.00;3.50;;;17.60;94.20;;;;;;4275421;27;20358;-64
2021/08/28 03:06:34;;;;;;;15.73;3.20;;;17.60;94.00;;;;;;4275551;27;20103;-65
2021/08/28 03:08:40;;;;;;;17.13;3.17;;;17.70;93.70;;;;;;4275799;27;20281;-65
2021/08/28 03:10:46;;;;;;;15.18;3.10;;;17.60;93.70;;;;;;4275665;27;20051;-64
2021/08/28 03:12:49;;;;;;;16.77;3.25;;;17.60;93.90;;;;;;4275734;27;20058;-65
2021/08/28 03:14:52;;;;;;;17.13;3.45;;;17.70;93.10;;;;;;4275849;27;20107;-65
2021/08/28 03:16:57;;;;;;;16.35;2.97;;;17.70;93.40;;;;;;4276396;27;20072;-65
2021/08/28 03:19:01;;;;;;;17.92;3.13;;;17.70;93.40;;;;;;4276448;27;20051;-65
2021/08/28 03:21:05;;;;;;;12.77;3.08;;;17.80;93.00;;;;;;4275845;27;20374;-65
2021/08/28 03:23:09;;;;;;;16.97;3.37;;;17.80;92.90;;;;;;4275268;27;20051;-65
2021/08/28 03:25:13;;;;;;;12.40;3.00;;;17.80;92.70;;;;;;4275157;27;20558;-65
2021/08/28 03:27:18;;;;;;;13.18;3.20;;;17.90;92.40;;;;;;4274999;27;20054;-63
2021/08/28 03:29:22;;;;;;;20.48;3.80;;;17.90;92.70;;;;;;4275066;27;20099;-63
2021/08/28 03:31:26;;;;;;;17.23;3.20;;;17.90;92.70;;;;;;4274332;27;20108;-63
2021/08/28 03:33:29;;;;;;;16.23;3.58;;;17.80;93.00;;;;;;4274481;27;20110;-63
2021/08/28 03:35:32;;;;;;;18.05;3.67;;;17.70;93.50;;;;;;4274810;27;20051;-63
2021/08/28 03:37:36;;;;;;;23.63;4.05;;;17.80;92.80;;;;;;4274921;27;20099;-63
2021/08/28 03:39:40;;;;;;;18.23;3.88;;;17.90;93.00;;;;;;4275033;27;20047;-63
2021/08/28 03:41:44;;;;;;;15.25;3.42;;;17.90;92.60;;;;;;4274668;27;20280;-63
2021/08/28 03:43:48;;;;;;;27.63;4.22;;;17.90;92.50;;;;;;4274739;27;20477;-62
2021/08/28 03:45:51;;;;;;;18.35;3.75;;;17.80;92.70;;;;;;4274863;27;20046;-63
2021/08/28 03:47:55;;;;;;;14.98;3.10;;;17.90;92.70;;;;;;4274731;27;20048;-64
2021/08/28 03:49:58;;;;;;;18.83;2.90;;;17.80;93.30;;;;;;4274829;27;20058;-63
2021/08/28 03:52:02;;;;;;;14.85;3.55;;;17.80;92.50;;;;;;4274522;27;20051;-63
2021/08/28 03:54:05;;;;;;;18.42;3.38;;;17.90;92.70;;;;;;4274807;27;20058;-63
2021/08/28 03:56:08;;;;;;;19.20;3.55;;;17.80;93.10;;;;;;4274679;27;20054;-63
2021/08/28 03:58:11;;;;;;;19.85;3.60;;;17.80;93.30;;;;;;4274543;27;20075;-63
2021/08/28 04:00:15;;;;;;;19.63;4.60;;;17.80;92.80;;;;;;4273613;27;20075;-63
2021/08/28 04:02:18;;;;;;;18.75;4.15;;;17.80;92.90;;;;;;4275488;27;20047;-64
2021/08/28 04:04:22;;;;;;;21.77;3.97;;;17.80;93.30;;;;;;4275453;27;20054;-63
2021/08/28 04:06:25;;;;;;;18.63;3.38;;;17.80;93.10;;;;;;4277228;27;20057;-63
2021/08/28 04:08:28;;;;;;;17.75;3.08;;;17.80;92.90;;;;;;4275574;27;20079;-63
2021/08/28 04:10:30;;;;;;;18.20;3.15;;;17.90;92.60;;;;;;4256181;27;20095;-64
2021/08/28 04:12:34;;;;;;;11.68;2.70;;;17.90;92.50;;;;;;4274479;27;20059;-65
2021/08/28 04:14:37;;;;;;;19.08;3.25;;;17.90;92.40;;;;;;4274287;27;20413;-66
2021/08/28 04:16:41;;;;;;;16.58;3.72;;;17.90;92.30;;;;;;4274384;27;20264;-63
2021/08/28 04:18:44;;;;;;;17.00;3.65;;;17.90;93.10;;;;;;4274300;27;20058;-65
2021/08/28 04:20:47;;;;;;;18.77;4.22;;;17.90;92.70;;;;;;4274055;27;20107;-65
2021/08/28 04:22:50;;;;;;;20.95;4.53;;;17.90;92.60;;;;;;4274447;27;20046;-63
2021/08/28 04:24:53;;;;;;;21.30;4.05;;;17.90;92.50;;;;;;4274550;27;20174;-62
2021/08/28 04:26:56;;;;;;;16.25;3.33;;;17.90;92.40;;;;;;4274396;27;20051;-64
2021/08/28 04:28:59;;;;;;;18.35;4.30;;;17.90;92.20;;;;;;4274235;27;20050;-65
2021/08/28 04:31:02;;;;;;;20.98;4.30;;;17.90;92.20;;;;;;4274009;27;20055;-62
2021/08/28 04:33:07;;;;;;;13.55;2.65;;;17.90;92.10;;;;;;4273656;27;20099;-62
2021/08/28 04:35:11;;;;;;;18.42;3.30;;;17.90;92.00;;;;;;4274018;27;20050;-65
2021/08/28 04:37:14;;;;;;;14.55;3.75;;;18.00;91.90;;;;;;4274229;27;20055;-65
2021/08/28 04:39:17;;;;;;;17.80;3.47;;;17.90;92.40;;;;;;4274147;27;20054;-65
2021/08/28 04:41:20;;;;;;;19.45;3.65;;;17.90;92.10;;;;;;4274298;27;20103;-65
2021/08/28 04:43:23;;;;;;;16.45;3.55;;;17.90;92.20;;;;;;4274352;27;20072;-64
2021/08/28 04:45:26;;;;;;;16.15;3.65;;;17.90;92.30;;;;;;4274593;27;20039;-63
2021/08/28 04:47:29;;;;;;;17.52;3.50;;;17.90;92.50;;;;;;4274619;27;20080;-64
2021/08/28 04:49:33;;;;;;;17.02;3.95;;;17.90;92.40;;;;;;4275226;27;20287;-64
2021/08/28 04:51:36;;;;;;;18.13;4.18;;;17.90;92.60;;;;;;4275367;27;20346;-63
2021/08/28 04:53:39;;;;;;;28.60;3.63;;;17.90;92.20;;;;;;4275903;27;20051;-64
2021/08/28 04:55:42;;;;;;;17.67;3.70;;;17.90;92.50;;;;;;4275421;27;20099;-63
2021/08/28 04:57:45;;;;;;;16.73;4.10;;;17.90;92.20;;;;;;4275591;27;20059;-63
2021/08/28 04:59:48;;;;;;;21.90;4.68;;;18.00;92.00;;;;;;4275722;27;20099;-63
2021/08/28 05:01:51;;;;;;;18.92;3.35;;;18.00;92.00;;;;;;4274823;27;20050;-64
2021/08/28 05:03:55;;;;;;;16.38;3.55;;;18.10;91.70;;;;;;4274726;27;20091;-65
2021/08/28 05:05:59;;;;;;;21.48;4.20;;;18.10;91.70;;;;;;4274001;27;20083;-66
2021/08/28 05:08:02;;;;;;;19.30;3.83;;;18.10;91.80;;;;;;4273916;27;20058;-65
2021/08/28 05:10:07;;;;;;;14.95;3.20;;;18.10;92.20;;;;;;4274160;27;20344;-65
2021/08/28 05:12:10;;;;;;;18.58;4.32;;;18.10;92.00;;;;;;4272598;27;20051;-63
2021/08/28 05:14:12;;;;;;;15.63;3.85;;;18.10;91.60;;;;;;4273428;27;20046;-64
2021/08/28 05:16:15;;;;;;;18.20;3.75;;;18.20;91.90;;;;;;4273312;27;20047;-63
2021/08/28 05:18:18;;;;;;;19.08;3.80;;;18.20;91.90;;;;;;4273611;27;20269;-63
2021/08/28 05:20:22;;;;;;;19.23;4.25;;;18.20;91.60;;;;;;4272992;27;20354;-63
2021/08/28 05:22:27;;;;;;;23.98;4.00;;;18.20;91.90;;;;;;4273612;27;20051;-63
2021/08/28 05:24:34;;;;;;;18.08;3.85;;;18.20;91.90;;;;;;4273386;27;20130;-64
2021/08/28 05:26:37;;;;;;;17.85;3.60;;;18.20;92.00;;;;;;4273431;27;20046;-63
2021/08/28 05:28:40;;;;;;;21.85;4.43;;;18.20;92.00;;;;;;4273605;27;20058;-63
2021/08/28 05:30:43;;;;;;;19.05;4.40;;;18.10;92.30;;;;;;4273374;27;20084;-63
2021/08/28 05:32:46;;;;;;;18.23;4.28;;;18.10;92.10;;;;;;4273884;27;20103;-67
2021/08/28 05:34:49;;;;;;;21.17;3.75;;;18.10;92.10;;;;;;4274031;27;20076;-66
2021/08/28 05:36:52;;;;;;;22.42;4.45;;;18.10;92.20;;;;;;4273483;27;20080;-65
2021/08/28 05:38:56;;;;;;;18.98;4.13;;;18.10;92.10;;;;;;4273264;27;20054;-63
2021/08/28 05:41:00;;;;;;;19.58;4.15;;;18.20;92.20;;;;;;4273167;27;20099;-63
2021/08/28 05:43:03;;;;;;;24.42;5.15;;;18.20;92.40;;;;;;4272919;27;20054;-63
2021/08/28 05:45:07;;;;;;;36.88;4.90;;;18.20;92.40;;;;;;4272941;27;20058;-63
2021/08/28 05:47:09;;;;;;;17.27;3.90;;;18.10;92.50;;;;;;4274461;27;20051;-65
2021/08/28 05:49:13;;;;;;;18.23;3.97;;;18.20;92.20;;;;;;4274349;27;20091;-70
2021/08/28 05:51:15;;;;;;;17.70;4.05;;;18.20;92.50;;;;;;4274317;27;20050;-65
2021/08/28 05:53:18;;;;;;;20.88;3.70;;;18.20;92.40;;;;;;4274633;27;20059;-68
2021/08/28 05:55:23;;;;;;;23.02;4.45;;;18.30;92.10;;;;;;4275034;27;20342;-64
2021/08/28 05:57:26;;;;;;;17.55;3.65;;;18.30;92.50;;;;;;4273957;27;20050;-63
2021/08/28 05:59:29;;;;;;;17.88;4.18;;;18.20;92.80;;;;;;4273811;27;20243;-63
2021/08/28 06:01:31;;;;;;;21.88;4.00;;;18.30;92.70;;;;;;4272726;27;20050;-63
2021/08/28 06:03:35;;;;;;;23.83;3.95;;;18.30;92.90;;;;;;4272532;27;20380;-63
2021/08/28 06:05:38;;;;;;;22.23;4.07;;;18.30;93.20;;;;;;4272636;27;20055;-63
2021/08/28 06:07:41;;;;;;;21.25;3.80;;;18.30;93.00;;;;;;4272685;27;20103;-62
2021/08/28 06:09:44;;;;;;;25.60;4.05;;;18.30;93.00;;;;;;4272587;27;20314;-66
2021/08/28 06:11:48;;;;;;;18.65;4.43;;;18.30;93.00;;;;;;4273051;27;20095;-65
2021/08/28 06:13:53;;;;;;;17.17;3.83;;;18.30;93.00;;;;;;4272996;27;20050;-64
2021/08/28 06:15:56;;;;;;;16.63;3.72;;;18.40;92.80;;;;;;4273511;27;20063;-66
2021/08/28 06:17:59;;;;;;;23.30;4.20;;;18.30;93.60;;;;;;4274870;27;20093;-64
2021/08/28 06:20:03;;;;;;;22.38;3.92;;;18.30;93.80;;;;;;4274552;27;20077;-65
2021/08/28 06:22:06;;;;;;;18.60;3.83;;;18.30;93.60;;;;;;4272551;27;20047;-63
2021/08/28 06:24:09;;;;;;;20.13;3.78;;;18.10;94.40;;;;;;4273149;27;20156;-64
2021/08/28 06:26:12;;;;;;;16.55;3.80;;;18.00;94.60;;;;;;4273212;27;20063;-65
2021/08/28 06:28:16;;;;;;;27.50;4.13;;;18.10;94.40;;;;;;4272531;27;20050;-63
2021/08/28 06:30:19;;;;;;;18.13;3.90;;;18.10;95.00;;;;;;4272270;27;20050;-63
2021/08/28 06:32:22;;;;;;;23.80;4.30;;;18.10;95.20;;;;;;4272626;27;20091;-65
2021/08/28 06:34:25;;;;;;;21.23;4.00;;;18.10;94.90;;;;;;4272408;27;20046;-63
2021/08/28 06:36:30;;;;;;;25.40;4.28;;;18.10;94.80;;;;;;4272665;27;20051;-63
2021/08/28 06:38:33;;;;;;;19.25;3.95;;;18.30;94.20;;;;;;4272611;27;20111;-63
2021/08/28 06:40:36;;;;;;;20.98;3.70;;;18.40;94.20;;;;;;4272568;27;20343;-67
2021/08/28 06:42:39;;;;;;;16.00;3.83;;;18.50;93.90;;;;;;4272326;27;20062;-63
2021/08/28 06:44:44;;;;;;;22.92;4.22;;;18.50;93.70;;;;;;4272405;27;20057;-64
2021/08/28 06:46:47;;;;;;;18.52;3.70;;;18.60;93.60;;;;;;4272485;27;20056;-63
2021/08/28 06:48:50;;;;;;;20.35;5.13;;;18.70;93.40;;;;;;4272427;27;20057;-63
2021/08/28 06:50:53;;;;;;;26.35;4.22;;;18.80;93.30;;;;;;4272323;27;20130;-63
2021/08/28 06:52:57;;;;;;;16.92;3.95;;;18.80;93.50;;;;;;4273804;27;20045;-64
2021/08/28 06:55:00;;;;;;;16.92;3.70;;;18.80;93.20;;;;;;4275077;27;20051;-63
2021/08/28 06:57:03;;;;;;;18.70;3.95;;;18.80;93.60;;;;;;4274160;27;20335;-63
2021/08/28 06:59:06;;;;;;;18.15;3.63;;;18.80;93.70;;;;;;4272547;27;20059;-63
2021/08/28 07:01:11;;;;;;;17.08;4.50;;;18.80;93.50;;;;;;4274044;27;20057;-63
2021/08/28 07:03:14;;;;;;;19.30;3.80;;;18.70;93.70;;;;;;4275828;27;20091;-63
2021/08/28 07:05:19;;;;;;;22.02;4.32;;;18.80;93.70;;;;;;4271815;27;20047;-66
2021/08/28 07:07:22;;;;;;;21.08;4.35;;;18.80;94.00;;;;;;4272533;27;20103;-63
2021/08/28 07:09:24;;;;;;;20.08;3.75;;;18.80;93.90;;;;;;4272405;27;20047;-63
2021/08/28 07:11:28;;;;;;;19.55;3.92;;;18.70;94.50;;;;;;4272084;27;20088;-63
2021/08/28 07:13:34;;;;;;;23.92;4.05;;;18.80;94.10;;;;;;4272227;27;20224;-63
2021/08/28 07:15:38;;;;;;;15.05;4.63;;;18.80;94.30;;;;;;4271941;27;20104;-65
2021/08/28 07:17:42;;;;;;;21.05;4.65;;;18.80;94.20;;;;;;4271931;27;20091;-63
2021/08/28 07:19:45;;;;;;;14.98;3.83;;;18.90;94.40;;;;;;4271927;27;20310;-65
2021/08/28 07:21:48;;;;;;;23.02;4.30;;;18.90;94.40;;;;;;4271645;27;20392;-63
2021/08/28 07:23:51;;;;;;;26.98;4.40;;;19.00;94.10;;;;;;4253920;27;20088;-63
2021/08/28 07:25:54;;;;;;;30.10;4.82;;;18.90;94.40;;;;;;4271971;27;20047;-63
2021/08/28 07:27:57;;;;;;;23.40;4.65;;;18.80;94.80;;;;;;4272140;27;20050;-63
2021/08/28 07:30:00;;;;;;;20.70;4.30;;;19.00;94.50;;;;;;4272388;27;20046;-66
2021/08/28 07:32:04;;;;;;;18.23;4.30;;;19.20;94.50;;;;;;4254296;27;20054;-65
2021/08/28 07:34:08;;;;;;;19.60;5.03;;;19.30;94.40;;;;;;4271906;27;20338;-65
2021/08/28 07:36:11;;;;;;;22.67;4.53;;;19.30;94.50;;;;;;4275558;27;20051;-65
2021/08/28 07:38:14;;;;;;;18.52;3.78;;;19.20;94.90;;;;;;4276825;27;20095;-63
2021/08/28 07:40:17;;;;;;;13.93;3.90;;;19.20;95.00;;;;;;4281296;27;20050;-64
2021/08/28 07:42:26;;;;;;;17.80;4.40;;;19.40;94.50;;;;;;4283890;27;20075;-64
2021/08/28 07:44:30;;;;;;;19.05;4.25;;;19.30;94.60;;;;;;4276286;27;20083;-63
2021/08/28 07:46:33;;;;;;;18.88;4.20;;;19.20;95.00;;;;;;4278395;27;20509;-65
2021/08/28 07:48:36;;;;;;;19.42;3.85;;;19.10;95.00;;;;;;4277699;27;20051;-65
2021/08/28 07:50:40;;;;;;;20.65;3.90;;;19.30;95.00;;;;;;4275490;27;20053;-71
2021/08/28 07:52:43;;;;;;;16.23;4.13;;;19.30;94.80;;;;;;4277226;27;20080;-66
2021/08/28 07:54:46;;;;;;;26.38;3.90;;;19.30;94.90;;;;;;4275785;27;20050;-66
2021/08/28 07:56:49;;;;;;;21.33;4.97;;;19.40;95.00;;;;;;4275030;27;20071;-66
2021/08/28 07:58:52;;;;;;;21.25;4.72;;;19.40;94.70;;;;;;4274798;27;20480;-65
2021/08/28 08:00:55;;;;;;;21.50;5.07;;;19.50;94.60;;;;;;4275008;27;20122;-65
2021/08/28 08:02:59;;;;;;;16.45;4.85;;;19.50;94.70;;;;;;4275013;27;20051;-63
2021/08/28 08:05:03;;;;;;;21.48;4.38;;;19.50;94.50;;;;;;4274910;27;20102;-63
2021/08/28 08:07:07;;;;;;;17.48;4.07;;;19.50;94.60;;;;;;4274841;27;20051;-63
2021/08/28 08:09:11;;;;;;;20.73;4.68;;;19.40;94.70;;;;;;4275053;27;20103;-63
2021/08/28 08:11:17;;;;;;;20.27;4.15;;;19.40;94.80;;;;;;4275013;27;20047;-65
2021/08/28 08:13:20;;;;;;;22.90;4.75;;;19.50;94.60;;;;;;4274811;27;20212;-66
2021/08/28 08:15:23;;;;;;;22.02;4.20;;;19.40;94.80;;;;;;4274760;27;20054;-65
2021/08/28 08:17:26;;;;;;;18.30;4.40;;;19.40;94.70;;;;;;4274651;27;20049;-65
2021/08/28 08:19:29;;;;;;;24.27;4.93;;;19.40;95.00;;;;;;4274295;27;20051;-66
2021/08/28 08:21:33;;;;;;;20.83;4.05;;;19.30;95.40;;;;;;4274285;27;20066;-65
2021/08/28 08:23:37;;;;;;;19.83;5.07;;;19.40;95.40;;;;;;4274320;27;20099;-65
2021/08/28 08:25:40;;;;;;;14.48;4.18;;;19.50;95.30;;;;;;4274864;27;20042;-63
2021/08/28 08:27:43;;;;;;;23.85;4.50;;;19.50;95.30;;;;;;4256191;27;20063;-64
2021/08/28 08:29:46;;;;;;;21.70;4.63;;;19.70;95.30;;;;;;4277517;27;20062;-63
2021/08/28 08:31:53;;;;;;;20.52;3.67;;;19.90;94.60;;;;;;4277774;27;20095;-63
2021/08/28 08:33:56;;;;;;;19.85;4.78;;;20.20;94.10;;;;;;4274455;27;20099;-63
2021/08/28 08:35:59;;;;;;;16.75;4.85;;;20.40;93.60;;;;;;4274092;27;20058;-63
2021/08/28 08:38:02;;;;;;;16.73;4.07;;;20.50;93.60;;;;;;4274210;27;20050;-63
2021/08/28 08:40:08;;;;;;;20.38;5.05;;;20.30;94.00;;;;;;4273886;27;20055;-63
2021/08/28 08:42:11;;;;;;;19.30;4.82;;;20.60;93.60;;;;;;4274113;27;20043;-65
2021/08/28 08:44:16;;;;;;;28.50;5.13;;;20.70;93.40;;;;;;4274070;27;20099;-63
2021/08/28 08:46:21;;;;;;;18.60;4.07;;;20.70;93.50;;;;;;4273535;27;20055;-63
2021/08/28 08:48:25;;;;;;;23.25;5.07;;;20.80;93.10;;;;;;4273869;27;20051;-64
2021/08/28 08:50:29;;;;;;;17.63;4.00;;;20.80;93.20;;;;;;4273819;27;20046;-63
2021/08/28 08:52:32;;;;;;;17.67;4.20;;;20.50;93.20;;;;;;4273971;27;20087;-63
2021/08/28 08:54:36;;;;;;;15.77;3.90;;;20.50;93.30;;;;;;4273709;27;20091;-63
2021/08/28 08:56:40;;;;;;;22.60;4.13;;;20.20;93.00;;;;;;4255979;27;20051;-63
2021/08/28 08:58:44;;;;;;;23.88;5.78;;;20.20;93.40;;;;;;4274197;27;20091;-62
2021/08/28 09:00:47;;;;;;;14.13;3.90;;;20.20;93.50;;;;;;4273935;27;20335;-63
2021/08/28 09:02:54;;;;;;;13.75;4.07;;;20.10;93.70;;;;;;4273703;27;20050;-63
2021/08/28 09:04:57;;;;;;;21.52;4.85;;;20.30;93.60;;;;;;4273421;27;20058;-63
2021/08/28 09:07:02;;;;;;;18.92;3.35;;;20.10;93.40;;;;;;4273575;27;20069;-63
2021/08/28 09:09:05;;;;;;;11.75;3.08;;;20.10;93.50;;;;;;4273822;27;20424;-63
2021/08/28 09:11:20;;;;;;;19.23;3.88;;;20.10;93.30;;;;;;4273552;27;20096;-66
2021/08/28 09:13:25;;;;;;;16.10;3.88;;;20.20;93.40;;;;;;4276949;27;20054;-66
2021/08/28 09:15:40;;;;;;;19.40;3.55;;;20.30;93.20;;;;;;4258903;27;20099;-65
2021/08/28 09:17:56;;;;;;;12.98;3.53;;;20.20;92.90;;;;;;4273972;27;20386;-65
2021/08/28 09:20:01;;;;;;;14.35;3.58;;;20.30;93.00;;;;;;4273521;27;20062;-66
2021/08/28 09:22:07;;;;;;;18.95;3.67;;;20.40;93.00;;;;;;4273815;27;20343;-66
2021/08/28 09:24:12;;;;;;;13.68;3.60;;;20.30;92.90;;;;;;4273518;27;20050;-65
2021/08/28 09:26:26;;;;;;;13.70;3.58;;;20.30;92.60;;;;;;4273592;27;20087;-65
2021/08/28 09:28:34;;;;;;;16.90;3.97;;;20.20;92.80;;;;;;4278374;27;20051;-66
2021/08/28 09:30:39;;;;;;;13.18;3.30;;;20.20;92.90;;;;;;4280558;27;20276;-66
2021/08/28 09:32:49;;;;;;;12.05;3.30;;;20.00;93.20;;;;;;4272153;27;20099;-66
2021/08/28 09:34:52;;;;;;;12.25;3.22;;;19.90;93.30;;;;;;4273274;27;20110;-65
2021/08/28 09:36:58;;;;;;;12.85;2.95;;;20.00;93.30;;;;;;4273510;27;20054;-63
2021/08/28 09:39:01;;;;;;;17.42;3.78;;;20.10;93.00;;;;;;4273585;27;20109;-62
2021/08/28 09:41:06;;;;;;;12.67;3.57;;;20.30;92.80;;;;;;4273566;27;20039;-63
2021/08/28 09:43:12;;;;;;;13.48;3.22;;;20.50;92.80;;;;;;4272727;27;20276;-64
2021/08/28 09:45:16;;;;;;;19.42;3.38;;;20.60;92.50;;;;;;4272757;27;20331;-63
2021/08/28 09:47:22;;;;;;;23.30;3.33;;;20.80;92.30;;;;;;4273139;27;20061;-63
2021/08/28 09:49:25;;;;;;;13.82;2.80;;;20.60;91.70;;;;;;4272906;27;20081;-63
2021/08/28 09:51:33;;;;;;;12.02;2.63;;;20.50;91.40;;;;;;4272821;27;20046;-63
2021/08/28 09:53:38;;;;;;;9.48;2.83;;;20.40;91.50;;;;;;4272963;27;20058;-63
2021/08/28 09:55:42;;;;;;;11.63;2.75;;;20.50;91.70;;;;;;4273448;27;20057;-62
2021/08/28 09:57:49;;;;;;;7.15;2.70;;;20.40;91.60;;;;;;4275713;27;20046;-63
2021/08/28 09:59:57;;;;;;;12.57;3.40;;;20.60;91.60;;;;;;4276513;27;20390;-66
2021/08/28 10:02:04;;;;;;;18.23;2.88;;;20.80;91.60;;;;;;4276227;27;20110;-65
2021/08/28 10:04:08;;;;;;;14.45;3.33;;;20.80;91.30;;;;;;4271234;27;20050;-65
2021/08/28 10:06:11;;;;;;;12.50;3.30;;;20.80;91.10;;;;;;4272658;27;20215;-65
2021/08/28 10:08:16;;;;;;;16.50;3.17;;;20.70;91.10;;;;;;4272734;27;20051;-65
2021/08/28 10:10:19;;;;;;;12.75;3.03;;;20.80;91.30;;;;;;4272574;27;20113;-62
2021/08/28 10:12:23;;;;;;;14.82;3.58;;;20.80;91.30;;;;;;4272847;27;20400;-63
2021/08/28 10:14:29;;;;;;;9.30;2.75;;;20.80;91.30;;;;;;4272748;27;20395;-65
2021/08/28 10:16:32;;;;;;;11.35;3.30;;;20.70;91.10;;;;;;4276301;27;20051;-63
2021/08/28 10:18:38;;;;;;;10.48;3.08;;;20.70;91.10;;;;;;4279738;27;20075;-68
2021/08/28 10:20:42;;;;;;;13.55;2.80;;;20.80;91.10;;;;;;4254169;27;20051;-65
2021/08/28 10:22:48;;;;;;;10.65;3.03;;;20.90;91.00;;;;;;4272530;27;20067;-65
2021/08/28 10:24:55;;;;;;;15.00;3.25;;;21.10;91.00;;;;;;4272232;27;20062;-65
2021/08/28 10:26:59;;;;;;;15.25;3.15;;;21.40;91.00;;;;;;4272764;27;20066;-65
2021/08/28 10:29:04;;;;;;;12.85;3.17;;;21.40;91.00;;;;;;4272356;27;20109;-66
2021/08/28 10:31:10;;;;;;;15.30;3.03;;;21.20;90.60;;;;;;4272347;27;20058;-65
2021/08/28 10:33:16;;;;;;;14.93;3.17;;;21.40;90.60;;;;;;4272595;27;20055;-65
2021/08/28 10:35:22;;;;;;;10.65;3.65;;;21.40;90.30;;;;;;4272514;27;20222;-66
2021/08/28 10:37:25;;;;;;;15.20;3.10;;;21.40;90.30;;;;;;4272449;27;20050;-63
2021/08/28 10:39:28;;;;;;;13.30;2.95;;;21.30;90.30;;;;;;4273103;27;20095;-65